sensor_id;sensor_type;location;lat;lon;timestamp;temperature;humidity
18777;DHT22;9517;51.174;4.160;2024-01-27T00:02:28;4.00;99.90
18777;DHT22;9517;51.174;4.160;2024-01-27T00:05:33;4.10;99.90
18777;DHT22;9517;51.174;4.160;2024-01-27T00:08:44;4.00;99.90
18777;DHT22;9517;51.174;4.160;2024-01-27T00:11:42;4.00;99.90
18777;DHT22;9517;51.174;4.160;2024-01-27T00:17:38;3.90;99.90
18777;DHT22;9517;51.174;4.160;2024-01-27T00:25:39;3.80;99.90
18777;DHT22;9517;51.174;4.160;2024-01-27T00:28:26;3.80;99.90
18777;DHT22;9517;51.174;4.160;2024-01-27T00:31:16;3.80;99.90
18777;DHT22;9517;51.174;4.160;2024-01-27T00:34:11;3.70;99.90
18777;DHT22;9517;51.174;4.160;2024-01-27T00:36:55;3.80;99.90
18777;DHT22;9517;51.174;4.160;2024-01-27T00:39:39;3.70;99.90
18777;DHT22;9517;51.174;4.160;2024-01-27T00:42:16;3.80;99.90
18777;DHT22;9517;51.174;4.160;2024-01-27T00:45:01;3.80;99.90
18777;DHT22;9517;51.174;4.160;2024-01-27T00:47:40;3.90;99.90
18777;DHT22;9517;51.174;4.160;2024-01-27T00:50:22;3.80;99.90
18777;DHT22;9517;51.174;4.160;2024-01-27T00:53:10;3.80;99.90
18777;DHT22;9517;51.174;4.160;2024-01-27T00:55:59;3.80;99.90
18777;DHT22;9517;51.174;4.160;2024-01-27T00:58:58;3.80;99.90
18777;DHT22;9517;51.174;4.160;2024-01-27T01:01:42;3.90;99.90
18777;DHT22;9517;51.174;4.160;2024-01-27T01:04:15;3.80;99.90
18777;DHT22;9517;51.174;4.160;2024-01-27T01:07:17;3.90;99.90
18777;DHT22;9517;51.174;4.160;2024-01-27T01:10:01;3.90;99.90
18777;DHT22;9517;51.174;4.160;2024-01-27T01:12:37;3.90;99.90
18777;DHT22;9517;51.174;4.160;2024-01-27T01:15:23;3.80;99.90
18777;DHT22;9517;51.174;4.160;2024-01-27T01:18:01;3.80;99.90
18777;DHT22;9517;51.174;4.160;2024-01-27T01:20:40;3.80;99.90
18777;DHT22;9517;51.174;4.160;2024-01-27T01:23:36;3.70;99.90
18777;DHT22;9517;51.174;4.160;2024-01-27T01:26:14;3.80;99.90
18777;DHT22;9517;51.174;4.160;2024-01-27T01:28:48;3.70;99.90
18777;DHT22;9517;51.174;4.160;2024-01-27T01:31:33;3.70;99.90
18777;DHT22;9517;51.174;4.160;2024-01-27T01:34:04;3.70;99.90
18777;DHT22;9517;51.174;4.160;2024-01-27T01:36:35;3.60;99.90
18777;DHT22;9517;51.174;4.160;2024-01-27T01:39:21;3.60;99.90
18777;DHT22;9517;51.174;4.160;2024-01-27T01:41:57;3.50;99.90
18777;DHT22;9517;51.174;4.160;2024-01-27T01:44:32;3.50;99.90
18777;DHT22;9517;51.174;4.160;2024-01-27T01:47:06;3.60;99.90
18777;DHT22;9517;51.174;4.160;2024-01-27T01:49:48;3.60;99.90
18777;DHT22;9517;51.174;4.160;2024-01-27T01:52:23;3.60;99.90
18777;DHT22;9517;51.174;4.160;2024-01-27T01:55:02;3.50;99.90
18777;DHT22;9517;51.174;4.160;2024-01-27T01:57:41;3.50;99.90
18777;DHT22;9517;51.174;4.160;2024-01-27T02:00:25;3.50;99.90
18777;DHT22;9517;51.174;4.160;2024-01-27T02:03:02;3.40;99.90
18777;DHT22;9517;51.174;4.160;2024-01-27T02:05:34;3.40;99.90
18777;DHT22;9517;51.174;4.160;2024-01-27T02:08:08;3.40;99.90
18777;DHT22;9517;51.174;4.160;2024-01-27T02:10:57;3.50;99.90
18777;DHT22;9517;51.174;4.160;2024-01-27T02:13:34;3.50;99.90
18777;DHT22;9517;51.174;4.160;2024-01-27T02:16:12;3.50;99.90
18777;DHT22;9517;51.174;4.160;2024-01-27T02:18:48;3.50;99.90
18777;DHT22;9517;51.174;4.160;2024-01-27T02:21:37;3.50;99.90
18777;DHT22;9517;51.174;4.160;2024-01-27T02:27:11;3.30;99.90
18777;DHT22;9517;51.174;4.160;2024-01-27T02:29:42;3.30;99.90
18777;DHT22;9517;51.174;4.160;2024-01-27T02:32:18;3.20;99.90
18777;DHT22;9517;51.174;4.160;2024-01-27T02:34:50;3.20;99.90
18777;DHT22;9517;51.174;4.160;2024-01-27T02:37:31;3.20;99.90
18777;DHT22;9517;51.174;4.160;2024-01-27T02:40:07;3.20;99.90
18777;DHT22;9517;51.174;4.160;2024-01-27T02:42:38;3.20;99.90
18777;DHT22;9517;51.174;4.160;2024-01-27T02:45:12;3.10;99.90
18777;DHT22;9517;51.174;4.160;2024-01-27T02:47:45;3.10;99.90
18777;DHT22;9517;51.174;4.160;2024-01-27T02:50:19;3.20;99.90
18777;DHT22;9517;51.174;4.160;2024-01-27T02:52:55;3.20;99.90
18777;DHT22;9517;51.174;4.160;2024-01-27T02:55:36;3.20;99.90
18777;DHT22;9517;51.174;4.160;2024-01-27T02:58:22;3.20;99.90
18777;DHT22;9517;51.174;4.160;2024-01-27T03:00:55;3.20;99.90
18777;DHT22;9517;51.174;4.160;2024-01-27T03:03:29;3.10;99.90
18777;DHT22;9517;51.174;4.160;2024-01-27T03:06:21;3.10;99.90
18777;DHT22;9517;51.174;4.160;2024-01-27T03:09:05;3.00;99.90
18777;DHT22;9517;51.174;4.160;2024-01-27T03:11:38;3.00;99.90
18777;DHT22;9517;51.174;4.160;2024-01-27T03:14:36;2.90;99.90
18777;DHT22;9517;51.174;4.160;2024-01-27T03:17:21;2.90;99.90
18777;DHT22;9517;51.174;4.160;2024-01-27T03:20:01;2.80;99.90
18777;DHT22;9517;51.174;4.160;2024-01-27T03:22:47;2.80;99.90
18777;DHT22;9517;51.174;4.160;2024-01-27T03:25:30;2.80;99.90
18777;DHT22;9517;51.174;4.160;2024-01-27T03:28:01;2.70;99.90
18777;DHT22;9517;51.174;4.160;2024-01-27T03:30:32;2.70;99.90
18777;DHT22;9517;51.174;4.160;2024-01-27T03:33:13;2.80;99.90
18777;DHT22;9517;51.174;4.160;2024-01-27T03:35:50;2.70;99.90
18777;DHT22;9517;51.174;4.160;2024-01-27T03:38:19;2.80;99.90
18777;DHT22;9517;51.174;4.160;2024-01-27T03:40:49;2.80;99.90
18777;DHT22;9517;51.174;4.160;2024-01-27T03:43:32;2.80;99.90
18777;DHT22;9517;51.174;4.160;2024-01-27T03:46:10;2.80;99.90
18777;DHT22;9517;51.174;4.160;2024-01-27T03:48:49;2.70;99.90
18777;DHT22;9517;51.174;4.160;2024-01-27T03:51:21;2.80;99.90
18777;DHT22;9517;51.174;4.160;2024-01-27T03:53:55;2.70;99.90
18777;DHT22;9517;51.174;4.160;2024-01-27T03:56:46;2.70;99.90
18777;DHT22;9517;51.174;4.160;2024-01-27T03:59:31;2.70;99.90
18777;DHT22;9517;51.174;4.160;2024-01-27T04:05:34;2.70;99.90
18777;DHT22;9517;51.174;4.160;2024-01-27T04:08:21;2.70;99.90
18777;DHT22;9517;51.174;4.160;2024-01-27T04:13:41;2.70;99.90
18777;DHT22;9517;51.174;4.160;2024-01-27T04:16:27;2.60;99.90
18777;DHT22;9517;51.174;4.160;2024-01-27T04:19:12;2.60;99.90
18777;DHT22;9517;51.174;4.160;2024-01-27T04:22:00;2.60;99.90
18777;DHT22;9517;51.174;4.160;2024-01-27T04:24:30;2.50;99.90
18777;DHT22;9517;51.174;4.160;2024-01-27T04:27:07;2.40;99.90
18777;DHT22;9517;51.174;4.160;2024-01-27T04:29:37;2.40;99.90
18777;DHT22;9517;51.174;4.160;2024-01-27T04:32:11;2.40;99.90
18777;DHT22;9517;51.174;4.160;2024-01-27T04:34:47;2.30;99.90
18777;DHT22;9517;51.174;4.160;2024-01-27T04:37:35;2.30;99.90
18777;DHT22;9517;51.174;4.160;2024-01-27T04:40:12;2.30;99.90
18777;DHT22;9517;51.174;4.160;2024-01-27T04:42:41;2.20;99.90
18777;DHT22;9517;51.174;4.160;2024-01-27T04:45:15;2.20;99.90
18777;DHT22;9517;51.174;4.160;2024-01-27T04:47:46;2.30;99.90
18777;DHT22;9517;51.174;4.160;2024-01-27T04:50:18;2.30;99.90
18777;DHT22;9517;51.174;4.160;2024-01-27T04:53:04;2.40;99.90
18777;DHT22;9517;51.174;4.160;2024-01-27T04:55:52;2.40;99.90
18777;DHT22;9517;51.174;4.160;2024-01-27T04:58:50;2.40;99.90
18777;DHT22;9517;51.174;4.160;2024-01-27T05:01:34;2.40;99.90
18777;DHT22;9517;51.174;4.160;2024-01-27T05:04:17;2.40;99.90
18777;DHT22;9517;51.174;4.160;2024-01-27T05:07:06;2.40;99.90
18777;DHT22;9517;51.174;4.160;2024-01-27T05:09:49;2.40;99.90
18777;DHT22;9517;51.174;4.160;2024-01-27T05:12:22;2.30;99.90
18777;DHT22;9517;51.174;4.160;2024-01-27T05:15:05;2.20;99.90
18777;DHT22;9517;51.174;4.160;2024-01-27T05:17:42;2.20;99.90
18777;DHT22;9517;51.174;4.160;2024-01-27T05:20:15;2.20;99.90
18777;DHT22;9517;51.174;4.160;2024-01-27T05:22:53;2.10;99.90
18777;DHT22;9517;51.174;4.160;2024-01-27T05:25:39;2.10;99.90
18777;DHT22;9517;51.174;4.160;2024-01-27T05:28:09;2.00;99.90
18777;DHT22;9517;51.174;4.160;2024-01-27T05:30:42;2.10;99.90
18777;DHT22;9517;51.174;4.160;2024-01-27T05:33:19;2.20;99.90
18777;DHT22;9517;51.174;4.160;2024-01-27T05:35:48;2.10;99.90
18777;DHT22;9517;51.174;4.160;2024-01-27T05:38:20;2.00;99.90
18777;DHT22;9517;51.174;4.160;2024-01-27T05:41:16;2.10;99.90
18777;DHT22;9517;51.174;4.160;2024-01-27T05:43:55;2.00;99.90
18777;DHT22;9517;51.174;4.160;2024-01-27T05:46:39;2.00;99.90
18777;DHT22;9517;51.174;4.160;2024-01-27T05:49:23;1.90;99.90
18777;DHT22;9517;51.174;4.160;2024-01-27T05:52:10;1.90;99.90
18777;DHT22;9517;51.174;4.160;2024-01-27T05:54:58;2.00;99.90
18777;DHT22;9517;51.174;4.160;2024-01-27T06:01:00;2.00;99.90
18777;DHT22;9517;51.174;4.160;2024-01-27T06:03:37;2.00;99.90
18777;DHT22;9517;51.174;4.160;2024-01-27T06:06:29;1.90;99.90
18777;DHT22;9517;51.174;4.160;2024-01-27T06:09:10;1.90;99.90
18777;DHT22;9517;51.174;4.160;2024-01-27T06:12:00;2.00;99.90
18777;DHT22;9517;51.174;4.160;2024-01-27T06:14:37;2.00;99.90
18777;DHT22;9517;51.174;4.160;2024-01-27T06:17:31;2.00;99.90
18777;DHT22;9517;51.174;4.160;2024-01-27T06:20:05;2.00;99.90
18777;DHT22;9517;51.174;4.160;2024-01-27T06:22:47;1.90;99.90
18777;DHT22;9517;51.174;4.160;2024-01-27T06:25:28;1.80;99.90
18777;DHT22;9517;51.174;4.160;2024-01-27T06:28:03;1.70;99.90
18777;DHT22;9517;51.174;4.160;2024-01-27T06:30:49;1.80;99.90
18777;DHT22;9517;51.174;4.160;2024-01-27T06:33:25;1.80;99.90
18777;DHT22;9517;51.174;4.160;2024-01-27T06:39:13;1.80;99.90
18777;DHT22;9517;51.174;4.160;2024-01-27T07:08:10;2.00;99.90
18777;DHT22;9517;51.174;4.160;2024-01-27T07:10:58;2.00;99.90
18777;DHT22;9517;51.174;4.160;2024-01-27T07:13:29;2.00;99.90
18777;DHT22;9517;51.174;4.160;2024-01-27T07:15:56;2.00;99.90
18777;DHT22;9517;51.174;4.160;2024-01-27T07:18:25;2.00;99.90
18777;DHT22;9517;51.174;4.160;2024-01-27T07:20:53;2.00;99.90
18777;DHT22;9517;51.174;4.160;2024-01-27T07:23:22;2.00;99.90
18777;DHT22;9517;51.174;4.160;2024-01-27T07:25:53;1.80;99.90
18777;DHT22;9517;51.174;4.160;2024-01-27T07:28:31;1.70;99.90
18777;DHT22;9517;51.174;4.160;2024-01-27T07:30:58;1.70;99.90
18777;DHT22;9517;51.174;4.160;2024-01-27T07:33:33;1.70;99.90
18777;DHT22;9517;51.174;4.160;2024-01-27T07:36:15;1.70;99.90
18777;DHT22;9517;51.174;4.160;2024-01-27T08:01:17;1.80;99.90
18777;DHT22;9517;51.174;4.160;2024-01-27T08:04:12;1.90;99.90
18777;DHT22;9517;51.174;4.160;2024-01-27T08:06:48;1.90;99.90
18777;DHT22;9517;51.174;4.160;2024-01-27T08:09:15;2.00;99.90
18777;DHT22;9517;51.174;4.160;2024-01-27T08:11:43;2.20;99.90
18777;DHT22;9517;51.174;4.160;2024-01-27T08:14:10;2.30;99.90
18777;DHT22;9517;51.174;4.160;2024-01-27T08:16:39;2.30;99.90
18777;DHT22;9517;51.174;4.160;2024-01-27T08:19:06;2.50;99.90
18777;DHT22;9517;51.174;4.160;2024-01-27T08:21:32;2.50;99.90
18777;DHT22;9517;51.174;4.160;2024-01-27T08:23:59;2.40;99.90
18777;DHT22;9517;51.174;4.160;2024-01-27T08:32:50;2.60;99.90
18777;DHT22;9517;51.174;4.160;2024-01-27T08:53:57;3.00;99.90
18777;DHT22;9517;51.174;4.160;2024-01-27T08:56:48;3.10;99.90
18777;DHT22;9517;51.174;4.160;2024-01-27T12:01:08;10.00;99.90
18777;DHT22;9517;51.174;4.160;2024-01-27T12:10:53;10.60;99.90
18777;DHT22;9517;51.174;4.160;2024-01-27T12:14:05;10.70;99.90
18777;DHT22;9517;51.174;4.160;2024-01-27T12:17:01;10.60;99.90
18777;DHT22;9517;51.174;4.160;2024-01-27T13:00:37;14.30;99.90
18777;DHT22;9517;51.174;4.160;2024-01-27T13:06:36;13.70;99.90
18777;DHT22;9517;51.174;4.160;2024-01-27T13:16:11;13.20;99.90
18777;DHT22;9517;51.174;4.160;2024-01-27T13:22:14;13.70;99.90
18777;DHT22;9517;51.174;4.160;2024-01-27T13:28:34;14.90;99.90
18777;DHT22;9517;51.174;4.160;2024-01-27T13:31:15;14.40;99.90
18777;DHT22;9517;51.174;4.160;2024-01-27T13:34:03;13.70;99.90
18777;DHT22;9517;51.174;4.160;2024-01-27T13:36:31;13.40;99.90
18777;DHT22;9517;51.174;4.160;2024-01-27T13:39:03;13.50;99.90
18777;DHT22;9517;51.174;4.160;2024-01-27T13:41:42;13.80;99.90
18777;DHT22;9517;51.174;4.160;2024-01-27T13:44:10;14.70;99.90
18777;DHT22;9517;51.174;4.160;2024-01-27T13:50:24;13.80;99.90
18777;DHT22;9517;51.174;4.160;2024-01-27T13:53:00;12.80;99.90
18777;DHT22;9517;51.174;4.160;2024-01-27T13:55:40;12.50;99.90
18777;DHT22;9517;51.174;4.160;2024-01-27T14:01:49;12.90;99.90
18777;DHT22;9517;51.174;4.160;2024-01-27T14:04:19;13.00;99.90
18777;DHT22;9517;51.174;4.160;2024-01-27T14:07:13;12.90;99.90
18777;DHT22;9517;51.174;4.160;2024-01-27T14:09:58;12.70;99.90
18777;DHT22;9517;51.174;4.160;2024-01-27T14:12:28;13.10;99.90
18777;DHT22;9517;51.174;4.160;2024-01-27T14:15:02;13.80;99.90
18777;DHT22;9517;51.174;4.160;2024-01-27T14:17:35;13.90;99.90
18777;DHT22;9517;51.174;4.160;2024-01-27T14:20:07;14.60;99.90
18777;DHT22;9517;51.174;4.160;2024-01-27T14:22:59;14.70;99.90
18777;DHT22;9517;51.174;4.160;2024-01-27T14:25:39;14.80;99.90
18777;DHT22;9517;51.174;4.160;2024-01-27T14:28:12;14.90;99.90
18777;DHT22;9517;51.174;4.160;2024-01-27T14:30:54;14.40;99.90
18777;DHT22;9517;51.174;4.160;2024-01-27T14:33:24;14.30;99.90
18777;DHT22;9517;51.174;4.160;2024-01-27T14:35:52;14.20;99.90
18777;DHT22;9517;51.174;4.160;2024-01-27T14:38:21;14.00;99.90
18777;DHT22;9517;51.174;4.160;2024-01-27T14:40:49;13.30;99.90
18777;DHT22;9517;51.174;4.160;2024-01-27T14:43:16;13.10;99.90
18777;DHT22;9517;51.174;4.160;2024-01-27T14:45:44;13.30;99.90
18777;DHT22;9517;51.174;4.160;2024-01-27T14:48:14;13.00;99.90
18777;DHT22;9517;51.174;4.160;2024-01-27T14:50:43;12.80;99.90
18777;DHT22;9517;51.174;4.160;2024-01-27T14:53:11;12.10;99.90
18777;DHT22;9517;51.174;4.160;2024-01-27T14:55:45;11.90;99.90
18777;DHT22;9517;51.174;4.160;2024-01-27T14:58:15;11.60;99.90
18777;DHT22;9517;51.174;4.160;2024-01-27T15:00:49;11.60;99.90
18777;DHT22;9517;51.174;4.160;2024-01-27T15:03:18;11.70;99.90
18777;DHT22;9517;51.174;4.160;2024-01-27T15:05:52;11.70;99.90
18777;DHT22;9517;51.174;4.160;2024-01-27T15:08:21;11.90;99.90
18777;DHT22;9517;51.174;4.160;2024-01-27T15:10:52;11.80;99.90
18777;DHT22;9517;51.174;4.160;2024-01-27T15:13:24;11.40;99.90
18777;DHT22;9517;51.174;4.160;2024-01-27T15:15:54;11.20;99.90
18777;DHT22;9517;51.174;4.160;2024-01-27T15:18:27;11.00;99.90
18777;DHT22;9517;51.174;4.160;2024-01-27T15:21:17;10.70;99.90
18777;DHT22;9517;51.174;4.160;2024-01-27T15:24:48;10.60;99.90
18777;DHT22;9517;51.174;4.160;2024-01-27T15:27:10;10.50;99.90
18777;DHT22;9517;51.174;4.160;2024-01-27T15:30:07;10.40;99.90
18777;DHT22;9517;51.174;4.160;2024-01-27T15:32:56;10.20;99.90
18777;DHT22;9517;51.174;4.160;2024-01-27T15:35:59;9.80;99.90
18777;DHT22;9517;51.174;4.160;2024-01-27T15:38:36;9.50;99.90
18777;DHT22;9517;51.174;4.160;2024-01-27T15:44:35;9.30;99.90
18777;DHT22;9517;51.174;4.160;2024-01-27T15:47:08;9.10;99.90
18777;DHT22;9517;51.174;4.160;2024-01-27T15:49:57;9.00;99.90
18777;DHT22;9517;51.174;4.160;2024-01-27T15:52:41;9.00;99.90
18777;DHT22;9517;51.174;4.160;2024-01-27T15:55:11;8.80;99.90
18777;DHT22;9517;51.174;4.160;2024-01-27T15:58:52;8.80;99.90
18777;DHT22;9517;51.174;4.160;2024-01-27T16:01:23;8.80;99.90
18777;DHT22;9517;51.174;4.160;2024-01-27T16:03:59;8.80;99.90
18777;DHT22;9517;51.174;4.160;2024-01-27T16:06:28;8.70;99.90
18777;DHT22;9517;51.174;4.160;2024-01-27T16:08:57;8.60;99.90
18777;DHT22;9517;51.174;4.160;2024-01-27T16:11:25;8.50;99.90
18777;DHT22;9517;51.174;4.160;2024-01-27T16:14:06;8.40;99.90
18777;DHT22;9517;51.174;4.160;2024-01-27T16:16:36;8.30;99.90
18777;DHT22;9517;51.174;4.160;2024-01-27T16:19:05;8.30;99.90
18777;DHT22;9517;51.174;4.160;2024-01-27T16:28:18;8.20;99.90
18777;DHT22;9517;51.174;4.160;2024-01-27T16:31:02;8.10;99.90
18777;DHT22;9517;51.174;4.160;2024-01-27T16:55:44;7.70;99.90
18777;DHT22;9517;51.174;4.160;2024-01-27T16:58:15;7.80;99.90
18777;DHT22;9517;51.174;4.160;2024-01-27T17:00:51;7.70;99.90
18777;DHT22;9517;51.174;4.160;2024-01-27T17:03:30;7.60;99.90
18777;DHT22;9517;51.174;4.160;2024-01-27T17:05:59;7.60;99.90
18777;DHT22;9517;51.174;4.160;2024-01-27T17:08:36;7.50;99.90
18777;DHT22;9517;51.174;4.160;2024-01-27T17:11:05;7.40;99.90
18777;DHT22;9517;51.174;4.160;2024-01-27T17:13:32;7.30;99.90
18777;DHT22;9517;51.174;4.160;2024-01-27T17:15:59;7.30;99.90
18777;DHT22;9517;51.174;4.160;2024-01-27T17:18:29;7.30;99.90
18777;DHT22;9517;51.174;4.160;2024-01-27T17:20:59;7.30;99.90
18777;DHT22;9517;51.174;4.160;2024-01-27T17:23:46;7.20;99.90
18777;DHT22;9517;51.174;4.160;2024-01-27T17:26:42;7.10;99.90
18777;DHT22;9517;51.174;4.160;2024-01-27T17:29:13;7.10;99.90
18777;DHT22;9517;51.174;4.160;2024-01-27T17:31:47;6.90;99.90
18777;DHT22;9517;51.174;4.160;2024-01-27T17:34:20;6.80;99.90
18777;DHT22;9517;51.174;4.160;2024-01-27T17:36:49;6.60;99.90
18777;DHT22;9517;51.174;4.160;2024-01-27T17:40:03;6.50;99.90
18777;DHT22;9517;51.174;4.160;2024-01-27T17:43:10;6.50;99.90
18777;DHT22;9517;51.174;4.160;2024-01-27T17:46:50;6.40;99.90
18777;DHT22;9517;51.174;4.160;2024-01-27T17:49:25;6.30;99.90
18777;DHT22;9517;51.174;4.160;2024-01-27T17:51:58;6.30;99.90
18777;DHT22;9517;51.174;4.160;2024-01-27T17:58:08;6.10;99.90
18777;DHT22;9517;51.174;4.160;2024-01-27T18:00:38;6.00;99.90
18777;DHT22;9517;51.174;4.160;2024-01-27T18:03:10;6.00;99.90
18777;DHT22;9517;51.174;4.160;2024-01-27T18:05:38;6.00;99.90
18777;DHT22;9517;51.174;4.160;2024-01-27T18:08:06;6.00;99.90
18777;DHT22;9517;51.174;4.160;2024-01-27T18:10:33;5.90;99.90
18777;DHT22;9517;51.174;4.160;2024-01-27T18:13:06;5.80;99.90
18777;DHT22;9517;51.174;4.160;2024-01-27T18:15:42;5.80;99.90
18777;DHT22;9517;51.174;4.160;2024-01-27T18:21:36;5.70;99.90
18777;DHT22;9517;51.174;4.160;2024-01-27T18:24:14;5.70;99.90
18777;DHT22;9517;51.174;4.160;2024-01-27T18:27:28;5.60;99.90
18777;DHT22;9517;51.174;4.160;2024-01-27T18:30:31;5.60;99.90
18777;DHT22;9517;51.174;4.160;2024-01-27T18:33:46;5.50;99.90
18777;DHT22;9517;51.174;4.160;2024-01-27T18:36:55;5.50;99.90
18777;DHT22;9517;51.174;4.160;2024-01-27T18:39:28;5.40;99.90
18777;DHT22;9517;51.174;4.160;2024-01-27T18:41:58;5.30;99.90
18777;DHT22;9517;51.174;4.160;2024-01-27T18:44:33;5.30;99.90
18777;DHT22;9517;51.174;4.160;2024-01-27T18:47:05;5.20;99.90
18777;DHT22;9517;51.174;4.160;2024-01-27T18:49:35;5.20;99.90
18777;DHT22;9517;51.174;4.160;2024-01-27T18:52:03;5.10;99.90
18777;DHT22;9517;51.174;4.160;2024-01-27T18:54:41;5.00;99.90
18777;DHT22;9517;51.174;4.160;2024-01-27T19:00:28;5.00;99.90
18777;DHT22;9517;51.174;4.160;2024-01-27T19:03:17;5.00;99.90
18777;DHT22;9517;51.174;4.160;2024-01-27T19:05:59;4.90;99.90
18777;DHT22;9517;51.174;4.160;2024-01-27T19:08:50;4.90;99.90
18777;DHT22;9517;51.174;4.160;2024-01-27T19:11:30;4.80;99.90
18777;DHT22;9517;51.174;4.160;2024-01-27T19:13:57;4.80;99.90
18777;DHT22;9517;51.174;4.160;2024-01-27T19:16:25;4.70;99.90
18777;DHT22;9517;51.174;4.160;2024-01-27T19:18:54;4.70;99.90
18777;DHT22;9517;51.174;4.160;2024-01-27T19:21:21;4.60;99.90
18777;DHT22;9517;51.174;4.160;2024-01-27T19:23:48;4.60;99.90
18777;DHT22;9517;51.174;4.160;2024-01-27T19:26:17;4.50;99.90
18777;DHT22;9517;51.174;4.160;2024-01-27T19:28:44;4.50;99.90
18777;DHT22;9517;51.174;4.160;2024-01-27T19:31:13;4.40;99.90
18777;DHT22;9517;51.174;4.160;2024-01-27T19:33:41;4.30;99.90
18777;DHT22;9517;51.174;4.160;2024-01-27T19:36:09;4.10;99.90
18777;DHT22;9517;51.174;4.160;2024-01-27T19:38:37;4.20;99.90
18777;DHT22;9517;51.174;4.160;2024-01-27T19:41:04;4.10;99.90
18777;DHT22;9517;51.174;4.160;2024-01-27T19:43:30;4.10;99.90
18777;DHT22;9517;51.174;4.160;2024-01-27T19:45:57;4.20;99.90
18777;DHT22;9517;51.174;4.160;2024-01-27T19:48:25;4.20;99.90
18777;DHT22;9517;51.174;4.160;2024-01-27T19:50:52;4.20;99.90
18777;DHT22;9517;51.174;4.160;2024-01-27T19:53:24;4.20;99.90
18777;DHT22;9517;51.174;4.160;2024-01-27T19:55:51;4.30;99.90
18777;DHT22;9517;51.174;4.160;2024-01-27T19:58:22;4.20;99.90
18777;DHT22;9517;51.174;4.160;2024-01-27T20:00:51;4.10;99.90
18777;DHT22;9517;51.174;4.160;2024-01-27T20:03:18;3.90;99.90
18777;DHT22;9517;51.174;4.160;2024-01-27T20:05:45;3.70;99.90
18777;DHT22;9517;51.174;4.160;2024-01-27T20:08:15;3.70;99.90
18777;DHT22;9517;51.174;4.160;2024-01-27T20:10:48;3.60;99.90
18777;DHT22;9517;51.174;4.160;2024-01-27T20:13:15;3.50;99.90
18777;DHT22;9517;51.174;4.160;2024-01-27T20:15:42;3.60;99.90
18777;DHT22;9517;51.174;4.160;2024-01-27T20:18:10;3.50;99.90
18777;DHT22;9517;51.174;4.160;2024-01-27T20:20:37;3.50;99.90
18777;DHT22;9517;51.174;4.160;2024-01-27T20:23:17;3.60;99.90
18777;DHT22;9517;51.174;4.160;2024-01-27T20:25:55;3.60;99.90
18777;DHT22;9517;51.174;4.160;2024-01-27T20:35:10;3.40;99.90
18777;DHT22;9517;51.174;4.160;2024-01-27T20:37:45;3.30;99.90
18777;DHT22;9517;51.174;4.160;2024-01-27T20:40:16;3.20;99.90
18777;DHT22;9517;51.174;4.160;2024-01-27T20:42:44;3.00;99.90
18777;DHT22;9517;51.174;4.160;2024-01-27T20:45:12;2.90;99.90
18777;DHT22;9517;51.174;4.160;2024-01-27T20:47:41;2.80;99.90
18777;DHT22;9517;51.174;4.160;2024-01-27T20:50:09;2.70;99.90
18777;DHT22;9517;51.174;4.160;2024-01-27T20:52:37;2.70;99.90
18777;DHT22;9517;51.174;4.160;2024-01-27T20:55:07;2.70;99.90
18777;DHT22;9517;51.174;4.160;2024-01-27T20:57:34;2.70;99.90
18777;DHT22;9517;51.174;4.160;2024-01-27T21:00:05;2.60;99.90
18777;DHT22;9517;51.174;4.160;2024-01-27T21:02:32;2.60;99.90
18777;DHT22;9517;51.174;4.160;2024-01-27T21:05:00;2.60;99.90
18777;DHT22;9517;51.174;4.160;2024-01-27T21:07:27;2.50;99.90
18777;DHT22;9517;51.174;4.160;2024-01-27T21:09:54;2.40;99.90
18777;DHT22;9517;51.174;4.160;2024-01-27T21:12:21;2.50;99.90
18777;DHT22;9517;51.174;4.160;2024-01-27T21:14:48;2.40;99.90
18777;DHT22;9517;51.174;4.160;2024-01-27T21:17:17;2.40;99.90
18777;DHT22;9517;51.174;4.160;2024-01-27T21:19:45;2.40;99.90
18777;DHT22;9517;51.174;4.160;2024-01-27T21:25:51;2.30;99.90
18777;DHT22;9517;51.174;4.160;2024-01-27T21:28:18;2.30;99.90
18777;DHT22;9517;51.174;4.160;2024-01-27T21:30:47;2.20;99.90
18777;DHT22;9517;51.174;4.160;2024-01-27T21:33:16;2.20;99.90
18777;DHT22;9517;51.174;4.160;2024-01-27T21:35:44;2.20;99.90
18777;DHT22;9517;51.174;4.160;2024-01-27T21:38:11;2.30;99.90
18777;DHT22;9517;51.174;4.160;2024-01-27T21:40:38;2.20;99.90
18777;DHT22;9517;51.174;4.160;2024-01-27T21:43:06;2.10;99.90
18777;DHT22;9517;51.174;4.160;2024-01-27T21:45:35;2.00;99.90
18777;DHT22;9517;51.174;4.160;2024-01-27T21:48:02;2.10;99.90
18777;DHT22;9517;51.174;4.160;2024-01-27T21:50:33;2.20;99.90
18777;DHT22;9517;51.174;4.160;2024-01-27T21:53:01;2.30;99.90
18777;DHT22;9517;51.174;4.160;2024-01-27T21:55:29;2.20;99.90
18777;DHT22;9517;51.174;4.160;2024-01-27T21:57:56;2.10;99.90
18777;DHT22;9517;51.174;4.160;2024-01-27T22:00:23;2.10;99.90
18777;DHT22;9517;51.174;4.160;2024-01-27T22:02:51;2.00;99.90
18777;DHT22;9517;51.174;4.160;2024-01-27T22:05:19;2.00;99.90
18777;DHT22;9517;51.174;4.160;2024-01-27T22:07:48;2.00;99.90
18777;DHT22;9517;51.174;4.160;2024-01-27T22:10:16;1.90;99.90
18777;DHT22;9517;51.174;4.160;2024-01-27T22:12:43;1.80;99.90
18777;DHT22;9517;51.174;4.160;2024-01-27T22:15:10;1.80;99.90
18777;DHT22;9517;51.174;4.160;2024-01-27T22:17:38;1.90;99.90
18777;DHT22;9517;51.174;4.160;2024-01-27T22:20:07;2.00;99.90
18777;DHT22;9517;51.174;4.160;2024-01-27T22:22:35;2.10;99.90
18777;DHT22;9517;51.174;4.160;2024-01-27T22:25:05;2.20;99.90
18777;DHT22;9517;51.174;4.160;2024-01-27T22:27:35;2.20;99.90
18777;DHT22;9517;51.174;4.160;2024-01-27T22:30:03;2.20;99.90
18777;DHT22;9517;51.174;4.160;2024-01-27T22:32:31;2.20;99.90
18777;DHT22;9517;51.174;4.160;2024-01-27T22:34:58;2.30;99.90
18777;DHT22;9517;51.174;4.160;2024-01-27T22:37:25;2.30;99.90
18777;DHT22;9517;51.174;4.160;2024-01-27T22:39:52;2.30;99.90
18777;DHT22;9517;51.174;4.160;2024-01-27T22:42:21;2.20;99.90
18777;DHT22;9517;51.174;4.160;2024-01-27T22:44:48;2.20;99.90
18777;DHT22;9517;51.174;4.160;2024-01-27T22:47:15;2.00;99.90
18777;DHT22;9517;51.174;4.160;2024-01-27T22:49:42;1.90;99.90
18777;DHT22;9517;51.174;4.160;2024-01-27T22:52:09;1.70;99.90
18777;DHT22;9517;51.174;4.160;2024-01-27T22:54:36;1.60;99.90
18777;DHT22;9517;51.174;4.160;2024-01-27T22:57:04;1.50;99.90
18777;DHT22;9517;51.174;4.160;2024-01-27T22:59:32;1.50;99.90
18777;DHT22;9517;51.174;4.160;2024-01-27T23:02:01;1.60;99.90
18777;DHT22;9517;51.174;4.160;2024-01-27T23:04:28;1.70;99.90
18777;DHT22;9517;51.174;4.160;2024-01-27T23:06:55;1.60;99.90
18777;DHT22;9517;51.174;4.160;2024-01-27T23:09:22;1.60;99.90
18777;DHT22;9517;51.174;4.160;2024-01-27T23:11:50;1.80;99.90
18777;DHT22;9517;51.174;4.160;2024-01-27T23:14:17;1.90;99.90
18777;DHT22;9517;51.174;4.160;2024-01-27T23:16:46;1.90;99.90
18777;DHT22;9517;51.174;4.160;2024-01-27T23:19:13;2.00;99.90
18777;DHT22;9517;51.174;4.160;2024-01-27T23:21:40;2.00;99.90
18777;DHT22;9517;51.174;4.160;2024-01-27T23:24:08;2.10;99.90
18777;DHT22;9517;51.174;4.160;2024-01-27T23:26:35;2.10;99.90
18777;DHT22;9517;51.174;4.160;2024-01-27T23:29:03;2.20;99.90
18777;DHT22;9517;51.174;4.160;2024-01-27T23:31:31;2.20;99.90
18777;DHT22;9517;51.174;4.160;2024-01-27T23:34:00;2.30;99.90
18777;DHT22;9517;51.174;4.160;2024-01-27T23:36:27;2.30;99.90
18777;DHT22;9517;51.174;4.160;2024-01-27T23:38:54;2.30;99.90
18777;DHT22;9517;51.174;4.160;2024-01-27T23:41:21;2.30;99.90
18777;DHT22;9517;51.174;4.160;2024-01-27T23:43:50;2.30;99.90